sensor_id;sensor_type;location;lat;lon;timestamp;pressure;altitude;pressure_sealevel;temperature;humidity
64141;BME280;50436;50.618;7.932;2024-01-15T00:01:57;95164.31;;;-3.49;100.00
64141;BME280;50436;50.618;7.932;2024-01-15T00:04:43;95153.84;;;-3.49;100.00
64141;BME280;50436;50.618;7.932;2024-01-15T00:07:29;95170.59;;;-3.37;100.00
64141;BME280;50436;50.618;7.932;2024-01-15T00:10:15;95155.22;;;-3.53;100.00
64141;BME280;50436;50.618;7.932;2024-01-15T00:13:01;95157.69;;;-3.45;100.00
64141;BME280;50436;50.618;7.932;2024-01-15T00:15:46;95151.88;;;-3.41;100.00
64141;BME280;50436;50.618;7.932;2024-01-15T00:18:35;95153.72;;;-3.34;100.00
64141;BME280;50436;50.618;7.932;2024-01-15T00:21:21;95146.50;;;-3.32;100.00
64141;BME280;50436;50.618;7.932;2024-01-15T00:24:09;95143.03;;;-3.40;100.00
64141;BME280;50436;50.618;7.932;2024-01-15T00:26:54;95133.78;;;-3.42;100.00
64141;BME280;50436;50.618;7.932;2024-01-15T00:29:41;95130.19;;;-3.28;100.00
64141;BME280;50436;50.618;7.932;2024-01-15T00:32:27;95129.63;;;-3.23;100.00
64141;BME280;50436;50.618;7.932;2024-01-15T00:35:12;95124.16;;;-3.28;100.00
64141;BME280;50436;50.618;7.932;2024-01-15T00:37:58;95126.16;;;-3.30;100.00
64141;BME280;50436;50.618;7.932;2024-01-15T00:40:44;95114.31;;;-3.26;100.00
64141;BME280;50436;50.618;7.932;2024-01-15T00:43:30;95110.25;;;-3.29;100.00
64141;BME280;50436;50.618;7.932;2024-01-15T00:46:16;95116.31;;;-3.28;100.00
64141;BME280;50436;50.618;7.932;2024-01-15T00:49:05;95109.53;;;-3.16;100.00
64141;BME280;50436;50.618;7.932;2024-01-15T00:51:51;95100.88;;;-3.10;100.00
64141;BME280;50436;50.618;7.932;2024-01-15T00:54:37;95098.41;;;-3.25;100.00
64141;BME280;50436;50.618;7.932;2024-01-15T00:57:23;95110.56;;;-3.11;100.00
64141;BME280;50436;50.618;7.932;2024-01-15T01:00:09;95095.25;;;-3.07;100.00
64141;BME280;50436;50.618;7.932;2024-01-15T01:02:55;95097.47;;;-3.04;100.00
64141;BME280;50436;50.618;7.932;2024-01-15T01:05:41;95094.84;;;-3.04;100.00
64141;BME280;50436;50.618;7.932;2024-01-15T01:08:27;95096.66;;;-3.04;100.00
64141;BME280;50436;50.618;7.932;2024-01-15T01:11:14;95078.94;;;-3.09;100.00
64141;BME280;50436;50.618;7.932;2024-01-15T01:14:00;95087.97;;;-3.12;100.00
64141;BME280;50436;50.618;7.932;2024-01-15T01:16:46;95075.91;;;-3.13;100.00
64141;BME280;50436;50.618;7.932;2024-01-15T01:19:32;95078.34;;;-3.11;100.00
64141;BME280;50436;50.618;7.932;2024-01-15T01:22:18;95097.25;;;-3.09;100.00
64141;BME280;50436;50.618;7.932;2024-01-15T01:25:04;95088.63;;;-3.03;100.00
64141;BME280;50436;50.618;7.932;2024-01-15T01:27:50;95086.19;;;-3.04;100.00
64141;BME280;50436;50.618;7.932;2024-01-15T01:30:36;95096.84;;;-3.13;100.00
64141;BME280;50436;50.618;7.932;2024-01-15T01:33:22;95092.22;;;-3.17;100.00
64141;BME280;50436;50.618;7.932;2024-01-15T01:36:08;95098.41;;;-3.25;100.00
64141;BME280;50436;50.618;7.932;2024-01-15T01:38:55;95103.03;;;-3.27;100.00
64141;BME280;50436;50.618;7.932;2024-01-15T01:41:41;95095.03;;;-3.19;100.00
64141;BME280;50436;50.618;7.932;2024-01-15T01:44:27;95091.56;;;-3.26;100.00
64141;BME280;50436;50.618;7.932;2024-01-15T01:47:14;95095.63;;;-3.17;100.00
64141;BME280;50436;50.618;7.932;2024-01-15T01:50:01;95091.16;;;-3.29;100.00
64141;BME280;50436;50.618;7.932;2024-01-15T01:52:48;95099.56;;;-3.41;100.00
64141;BME280;50436;50.618;7.932;2024-01-15T01:55:38;95089.06;;;-3.47;100.00
64141;BME280;50436;50.618;7.932;2024-01-15T01:58:24;95089.50;;;-3.37;100.00
64141;BME280;50436;50.618;7.932;2024-01-15T02:01:12;95087.50;;;-3.42;100.00
64141;BME280;50436;50.618;7.932;2024-01-15T02:03:58;95092.38;;;-3.25;100.00
64141;BME280;50436;50.618;7.932;2024-01-15T02:06:44;95092.75;;;-3.28;100.00
64141;BME280;50436;50.618;7.932;2024-01-15T02:09:30;95093.31;;;-3.40;100.00
64141;BME280;50436;50.618;7.932;2024-01-15T02:12:17;95093.72;;;-3.36;100.00
64141;BME280;50436;50.618;7.932;2024-01-15T02:15:04;95100.03;;;-3.24;100.00
64141;BME280;50436;50.618;7.932;2024-01-15T02:20:42;95092.34;;;-3.32;100.00
64141;BME280;50436;50.618;7.932;2024-01-15T02:23:29;95094.13;;;-3.39;100.00
64141;BME280;50436;50.618;7.932;2024-01-15T02:26:15;95084.06;;;-3.36;100.00
64141;BME280;50436;50.618;7.932;2024-01-15T02:29:01;95090.78;;;-3.20;100.00
64141;BME280;50436;50.618;7.932;2024-01-15T02:31:47;95083.94;;;-3.21;100.00
64141;BME280;50436;50.618;7.932;2024-01-15T02:34:33;95089.78;;;-3.19;100.00
64141;BME280;50436;50.618;7.932;2024-01-15T02:37:19;95099.28;;;-3.11;100.00
64141;BME280;50436;50.618;7.932;2024-01-15T02:40:07;95100.25;;;-3.12;100.00
64141;BME280;50436;50.618;7.932;2024-01-15T02:42:53;95104.50;;;-3.04;100.00
64141;BME280;50436;50.618;7.932;2024-01-15T02:45:38;95102.69;;;-3.04;100.00
64141;BME280;50436;50.618;7.932;2024-01-15T02:48:24;95107.28;;;-3.19;100.00
64141;BME280;50436;50.618;7.932;2024-01-15T02:51:10;95101.88;;;-3.18;100.00
64141;BME280;50436;50.618;7.932;2024-01-15T02:53:56;95105.53;;;-3.05;100.00
64141;BME280;50436;50.618;7.932;2024-01-15T02:56:42;95104.50;;;-3.04;100.00
64141;BME280;50436;50.618;7.932;2024-01-15T02:59:28;95110.38;;;-3.02;100.00
64141;BME280;50436;50.618;7.932;2024-01-15T03:02:14;95106.09;;;-3.17;100.00
64141;BME280;50436;50.618;7.932;2024-01-15T03:04:59;95113.47;;;-3.27;100.00
64141;BME280;50436;50.618;7.932;2024-01-15T03:07:45;95108.09;;;-3.19;100.00
64141;BME280;50436;50.618;7.932;2024-01-15T03:10:31;95102.88;;;-3.19;100.00
64141;BME280;50436;50.618;7.932;2024-01-15T03:13:17;95103.06;;;-3.14;100.00
64141;BME280;50436;50.618;7.932;2024-01-15T03:16:05;95107.13;;;-3.04;100.00
64141;BME280;50436;50.618;7.932;2024-01-15T03:18:51;95096.66;;;-3.11;100.00
64141;BME280;50436;50.618;7.932;2024-01-15T03:21:37;95095.81;;;-3.25;100.00
64141;BME280;50436;50.618;7.932;2024-01-15T03:24:23;95098.38;;;-3.31;100.00
64141;BME280;50436;50.618;7.932;2024-01-15T03:27:09;95095.53;;;-3.37;100.00
64141;BME280;50436;50.618;7.932;2024-01-15T03:29:55;95092.19;;;-3.24;100.00
64141;BME280;50436;50.618;7.932;2024-01-15T03:32:41;95076.69;;;-3.25;100.00
64141;BME280;50436;50.618;7.932;2024-01-15T03:35:27;95079.31;;;-3.12;100.00
64141;BME280;50436;50.618;7.932;2024-01-15T03:38:14;95091.03;;;-3.01;100.00
64141;BME280;50436;50.618;7.932;2024-01-15T03:41:00;95080.75;;;-3.10;100.00
64141;BME280;50436;50.618;7.932;2024-01-15T03:43:46;95080.34;;;-3.06;100.00
64141;BME280;50436;50.618;7.932;2024-01-15T03:46:32;95082.16;;;-3.14;100.00
64141;BME280;50436;50.618;7.932;2024-01-15T03:49:18;95092.84;;;-3.09;100.00
64141;BME280;50436;50.618;7.932;2024-01-15T03:52:04;95084.38;;;-3.04;100.00
64141;BME280;50436;50.618;7.932;2024-01-15T03:54:50;95079.97;;;-3.03;100.00
64141;BME280;50436;50.618;7.932;2024-01-15T03:57:36;95084.97;;;-3.09;100.00
64141;BME280;50436;50.618;7.932;2024-01-15T04:00:22;95082.97;;;-3.06;100.00
64141;BME280;50436;50.618;7.932;2024-01-15T04:03:08;95097.91;;;-3.00;100.00
64141;BME280;50436;50.618;7.932;2024-01-15T04:05:54;95080.94;;;-3.04;100.00
64141;BME280;50436;50.618;7.932;2024-01-15T04:08:40;95074.91;;;-3.05;100.00
64141;BME280;50436;50.618;7.932;2024-01-15T04:11:26;95071.06;;;-3.16;100.00
64141;BME280;50436;50.618;7.932;2024-01-15T04:14:11;95085.22;;;-3.03;100.00
64141;BME280;50436;50.618;7.932;2024-01-15T04:16:57;95080.16;;;-2.98;100.00
64141;BME280;50436;50.618;7.932;2024-01-15T04:19:44;95077.19;;;-2.95;100.00
64141;BME280;50436;50.618;7.932;2024-01-15T04:22:36;95073.94;;;-2.91;100.00
64141;BME280;50436;50.618;7.932;2024-01-15T04:25:22;95065.88;;;-2.96;100.00
64141;BME280;50436;50.618;7.932;2024-01-15T04:28:09;95064.06;;;-2.89;100.00
64141;BME280;50436;50.618;7.932;2024-01-15T04:30:55;95071.56;;;-2.86;100.00
64141;BME280;50436;50.618;7.932;2024-01-15T04:33:41;95076.38;;;-2.83;100.00
64141;BME280;50436;50.618;7.932;2024-01-15T04:36:27;95080.03;;;-2.77;100.00
64141;BME280;50436;50.618;7.932;2024-01-15T04:39:12;95068.94;;;-2.72;100.00
64141;BME280;50436;50.618;7.932;2024-01-15T04:41:58;95068.75;;;-2.71;100.00
64141;BME280;50436;50.618;7.932;2024-01-15T04:44:44;95068.94;;;-2.66;100.00
64141;BME280;50436;50.618;7.932;2024-01-15T04:47:30;95076.41;;;-2.63;100.00
64141;BME280;50436;50.618;7.932;2024-01-15T04:50:16;95075.78;;;-2.65;100.00
64141;BME280;50436;50.618;7.932;2024-01-15T04:53:02;95075.19;;;-2.67;100.00
64141;BME280;50436;50.618;7.932;2024-01-15T04:55:47;95072.75;;;-2.75;100.00
64141;BME280;50436;50.618;7.932;2024-01-15T04:58:33;95064.91;;;-2.82;100.00
64141;BME280;50436;50.618;7.932;2024-01-15T05:01:19;95072.16;;;-2.84;100.00
64141;BME280;50436;50.618;7.932;2024-01-15T05:04:05;95064.31;;;-2.77;100.00
64141;BME280;50436;50.618;7.932;2024-01-15T05:06:51;95054.84;;;-2.71;100.00
64141;BME280;50436;50.618;7.932;2024-01-15T05:09:37;95056.84;;;-2.73;100.00
64141;BME280;50436;50.618;7.932;2024-01-15T05:12:22;95059.47;;;-2.67;100.00
64141;BME280;50436;50.618;7.932;2024-01-15T05:15:08;95055.03;;;-2.66;100.00
64141;BME280;50436;50.618;7.932;2024-01-15T05:17:55;95054.84;;;-2.65;100.00
64141;BME280;50436;50.618;7.932;2024-01-15T05:20:41;95056.25;;;-2.69;100.00
64141;BME280;50436;50.618;7.932;2024-01-15T05:23:27;95046.19;;;-2.78;100.00
64141;BME280;50436;50.618;7.932;2024-01-15T05:26:13;95047.38;;;-2.74;100.00
64141;BME280;50436;50.618;7.932;2024-01-15T05:28:59;95053.44;;;-2.74;100.00
64141;BME280;50436;50.618;7.932;2024-01-15T05:31:45;95049.00;;;-2.80;100.00
64141;BME280;50436;50.618;7.932;2024-01-15T05:34:31;95058.88;;;-2.75;100.00
64141;BME280;50436;50.618;7.932;2024-01-15T05:37:16;95055.44;;;-2.76;100.00
64141;BME280;50436;50.618;7.932;2024-01-15T05:40:02;95040.97;;;-2.72;100.00
64141;BME280;50436;50.618;7.932;2024-01-15T05:42:50;95054.84;;;-2.71;100.00
64141;BME280;50436;50.618;7.932;2024-01-15T05:45:38;95047.81;;;-2.64;100.00
64141;BME280;50436;50.618;7.932;2024-01-15T05:48:24;95043.78;;;-2.60;100.00
64141;BME280;50436;50.618;7.932;2024-01-15T05:51:10;95044.38;;;-2.65;100.00
64141;BME280;50436;50.618;7.932;2024-01-15T05:53:55;95041.38;;;-2.62;100.00
64141;BME280;50436;50.618;7.932;2024-01-15T05:56:41;95034.31;;;-2.61;100.00
64141;BME280;50436;50.618;7.932;2024-01-15T05:59:27;95030.50;;;-2.72;100.00
64141;BME280;50436;50.618;7.932;2024-01-15T06:02:17;95035.31;;;-2.69;100.00
64141;BME280;50436;50.618;7.932;2024-01-15T06:05:03;95042.97;;;-2.67;100.00
64141;BME280;50436;50.618;7.932;2024-01-15T06:07:49;95046.19;;;-2.72;100.00
64141;BME280;50436;50.618;7.932;2024-01-15T06:10:37;95044.97;;;-2.76;100.00
64141;BME280;50436;50.618;7.932;2024-01-15T06:13:23;95038.13;;;-2.70;100.00
64141;BME280;50436;50.618;7.932;2024-01-15T06:16:13;95042.97;;;-2.67;100.00
64141;BME280;50436;50.618;7.932;2024-01-15T06:19:00;95049.44;;;-2.63;100.00
64141;BME280;50436;50.618;7.932;2024-01-15T06:21:46;95047.41;;;-2.68;100.00
64141;BME280;50436;50.618;7.932;2024-01-15T06:24:32;95040.34;;;-2.61;100.00
64141;BME280;50436;50.618;7.932;2024-01-15T06:27:18;95036.94;;;-2.61;100.00
64141;BME280;50436;50.618;7.932;2024-01-15T06:30:04;95044.78;;;-2.55;100.00
64141;BME280;50436;50.618;7.932;2024-01-15T06:32:50;95050.63;;;-2.59;100.00
64141;BME280;50436;50.618;7.932;2024-01-15T06:35:36;95043.75;;;-2.67;100.00
64141;BME280;50436;50.618;7.932;2024-01-15T06:38:22;95047.81;;;-2.64;100.00
64141;BME280;50436;50.618;7.932;2024-01-15T06:41:08;95050.59;;;-2.66;100.00
64141;BME280;50436;50.618;7.932;2024-01-15T06:43:57;95043.75;;;-2.67;100.00
64141;BME280;50436;50.618;7.932;2024-01-15T06:46:43;95044.16;;;-2.83;100.00
64141;BME280;50436;50.618;7.932;2024-01-15T06:49:29;95041.94;;;-2.73;100.00
64141;BME280;50436;50.618;7.932;2024-01-15T06:52:15;95046.59;;;-2.68;100.00
64141;BME280;50436;50.618;7.932;2024-01-15T06:55:01;95046.97;;;-2.65;100.00
64141;BME280;50436;50.618;7.932;2024-01-15T06:57:47;95040.34;;;-2.54;100.00
64141;BME280;50436;50.618;7.932;2024-01-15T07:00:32;95034.91;;;-2.53;100.00
64141;BME280;50436;50.618;7.932;2024-01-15T07:03:18;95026.66;;;-2.56;100.00
64141;BME280;50436;50.618;7.932;2024-01-15T07:06:04;95031.28;;;-2.45;100.00
64141;BME280;50436;50.618;7.932;2024-01-15T07:08:50;95032.28;;;-2.53;100.00
64141;BME280;50436;50.618;7.932;2024-01-15T07:11:36;95040.75;;;-2.64;100.00
64141;BME280;50436;50.618;7.932;2024-01-15T07:14:22;95041.16;;;-2.67;100.00
64141;BME280;50436;50.618;7.932;2024-01-15T07:17:08;95034.72;;;-2.64;100.00
64141;BME280;50436;50.618;7.932;2024-01-15T07:19:54;95036.50;;;-2.58;100.00
64141;BME280;50436;50.618;7.932;2024-01-15T07:22:40;95031.25;;;-2.65;100.00
64141;BME280;50436;50.618;7.932;2024-01-15T07:25:26;95037.94;;;-2.56;100.00
64141;BME280;50436;50.618;7.932;2024-01-15T07:28:12;95030.47;;;-2.59;100.00
64141;BME280;50436;50.618;7.932;2024-01-15T07:30:58;95017.97;;;-2.50;100.00
64141;BME280;50436;50.618;7.932;2024-01-15T07:33:43;95013.16;;;-2.60;100.00
64141;BME280;50436;50.618;7.932;2024-01-15T07:36:29;95018.97;;;-2.58;100.00
64141;BME280;50436;50.618;7.932;2024-01-15T07:39:15;95004.47;;;-2.67;100.00
64141;BME280;50436;50.618;7.932;2024-01-15T07:42:01;95009.94;;;-2.55;100.00
64141;BME280;50436;50.618;7.932;2024-01-15T07:44:47;95014.75;;;-2.45;100.00
64141;BME280;50436;50.618;7.932;2024-01-15T07:47:33;95022.81;;;-2.40;100.00
64141;BME280;50436;50.618;7.932;2024-01-15T07:50:19;95010.91;;;-2.30;100.00
64141;BME280;50436;50.618;7.932;2024-01-15T07:53:05;95017.75;;;-2.29;100.00
64141;BME280;50436;50.618;7.932;2024-01-15T07:55:51;95022.78;;;-2.27;100.00
64141;BME280;50436;50.618;7.932;2024-01-15T07:58:37;95017.56;;;-2.27;100.00
64141;BME280;50436;50.618;7.932;2024-01-15T08:01:22;95015.34;;;-2.50;100.00
64141;BME280;50436;50.618;7.932;2024-01-15T08:04:08;95022.81;;;-2.47;100.00
64141;BME280;50436;50.618;7.932;2024-01-15T08:06:54;95014.75;;;-2.52;100.00
64141;BME280;50436;50.618;7.932;2024-01-15T08:09:40;95022.03;;;-2.47;100.00
64141;BME280;50436;50.618;7.932;2024-01-15T08:12:27;95013.75;;;-2.38;100.00
64141;BME280;50436;50.618;7.932;2024-01-15T08:15:13;95019.78;;;-2.37;100.00
64141;BME280;50436;50.618;7.932;2024-01-15T08:17:59;95021.81;;;-2.33;100.00
64141;BME280;50436;50.618;7.932;2024-01-15T08:20:45;95016.16;;;-2.23;100.00
64141;BME280;50436;50.618;7.932;2024-01-15T08:23:30;95016.94;;;-2.16;100.00
64141;BME280;50436;50.618;7.932;2024-01-15T08:26:16;95018.34;;;-2.07;100.00
64141;BME280;50436;50.618;7.932;2024-01-15T08:29:02;95007.03;;;-1.94;100.00
64141;BME280;50436;50.618;7.932;2024-01-15T08:31:48;95013.03;;;-1.87;100.00
64141;BME280;50436;50.618;7.932;2024-01-15T08:34:34;94999.56;;;-2.04;100.00
64141;BME280;50436;50.618;7.932;2024-01-15T08:37:20;95014.28;;;-2.03;100.00
64141;BME280;50436;50.618;7.932;2024-01-15T08:40:06;95002.81;;;-2.02;100.00
64141;BME280;50436;50.618;7.932;2024-01-15T08:42:52;95021.72;;;-1.86;100.00
64141;BME280;50436;50.618;7.932;2024-01-15T08:45:38;95014.91;;;-1.94;100.00
64141;BME280;50436;50.618;7.932;2024-01-15T08:48:24;95013.44;;;-1.77;100.00
64141;BME280;50436;50.618;7.932;2024-01-15T08:51:12;94998.94;;;-1.92;100.00
64141;BME280;50436;50.618;7.932;2024-01-15T08:53:58;95012.03;;;-1.86;100.00
64141;BME280;50436;50.618;7.932;2024-01-15T08:56:47;94999.28;;;-1.69;100.00
64141;BME280;50436;50.618;7.932;2024-01-15T08:59:33;95022.63;;;-1.54;100.00
64141;BME280;50436;50.618;7.932;2024-01-15T09:02:18;95016.84;;;-1.70;100.00
64141;BME280;50436;50.618;7.932;2024-01-15T09:05:04;95027.25;;;-1.56;100.00
64141;BME280;50436;50.618;7.932;2024-01-15T09:07:51;95025.59;;;-1.37;100.00
64141;BME280;50436;50.618;7.932;2024-01-15T09:10:37;95030.59;;;-1.29;100.00
64141;BME280;50436;50.618;7.932;2024-01-15T09:13:23;95018.72;;;-1.38;100.00
64141;BME280;50436;50.618;7.932;2024-01-15T09:16:09;95032.72;;;-1.58;100.00
64141;BME280;50436;50.618;7.932;2024-01-15T09:18:55;95035.22;;;-1.76;100.00
64141;BME280;50436;50.618;7.932;2024-01-15T09:21:43;95026.53;;;-1.77;100.00
64141;BME280;50436;50.618;7.932;2024-01-15T09:24:28;95038.03;;;-1.71;100.00
64141;BME280;50436;50.618;7.932;2024-01-15T09:27:14;95050.91;;;-1.63;100.00
64141;BME280;50436;50.618;7.932;2024-01-15T09:30:00;95021.66;;;-1.73;100.00
64141;BME280;50436;50.618;7.932;2024-01-15T09:32:46;95040.34;;;-1.43;100.00
64141;BME280;50436;50.618;7.932;2024-01-15T09:35:32;95040.84;;;-1.21;100.00
64141;BME280;50436;50.618;7.932;2024-01-15T09:38:19;95028.88;;;-1.10;100.00
64141;BME280;50436;50.618;7.932;2024-01-15T09:41:05;95036.88;;;-0.92;100.00
64141;BME280;50436;50.618;7.932;2024-01-15T09:43:52;95030.09;;;-1.13;100.00
64141;BME280;50436;50.618;7.932;2024-01-15T09:46:38;95024.03;;;-1.07;100.00
64141;BME280;50436;50.618;7.932;2024-01-15T09:49:24;95026.53;;;-1.25;100.00
64141;BME280;50436;50.618;7.932;2024-01-15T09:52:11;95019.78;;;-1.08;100.00
64141;BME280;50436;50.618;7.932;2024-01-15T09:55:01;95034.41;;;-0.94;100.00
64141;BME280;50436;50.618;7.932;2024-01-15T09:57:48;95028.88;;;-0.79;100.00
64141;BME280;50436;50.618;7.932;2024-01-15T10:00:35;95021.94;;;-0.67;100.00
64141;BME280;50436;50.618;7.932;2024-01-15T10:03:25;95015.78;;;-0.29;100.00
64141;BME280;50436;50.618;7.932;2024-01-15T10:06:11;95015.78;;;-0.29;100.00
64141;BME280;50436;50.618;7.932;2024-01-15T10:09:01;95010.94;;;-0.32;100.00
64141;BME280;50436;50.618;7.932;2024-01-15T10:11:49;95017.34;;;-0.21;100.00
64141;BME280;50436;50.618;7.932;2024-01-15T10:14:35;95011.94;;;-0.08;100.00
64141;BME280;50436;50.618;7.932;2024-01-15T10:17:20;94995.50;;;-0.22;100.00
64141;BME280;50436;50.618;7.932;2024-01-15T10:20:10;95000.72;;;0.03;100.00
64141;BME280;50436;50.618;7.932;2024-01-15T10:22:57;94986.91;;;0.26;100.00
64141;BME280;50436;50.618;7.932;2024-01-15T10:25:42;95001.56;;;-0.03;100.00
64141;BME280;50436;50.618;7.932;2024-01-15T10:28:40;94986.97;;;0.19;100.00
64141;BME280;50436;50.618;7.932;2024-01-15T10:31:37;94988.72;;;0.07;100.00
64141;BME280;50436;50.618;7.932;2024-01-15T10:34:41;94979.94;;;-0.48;100.00
64141;BME280;50436;50.618;7.932;2024-01-15T10:37:37;94974.56;;;-0.35;100.00
64141;BME280;50436;50.618;7.932;2024-01-15T10:40:55;94974.19;;;-0.14;100.00
64141;BME280;50436;50.618;7.932;2024-01-15T10:43:41;94968.53;;;-0.36;100.00
64141;BME280;50436;50.618;7.932;2024-01-15T10:46:28;94952.19;;;-0.19;100.00
64141;BME280;50436;50.618;7.932;2024-01-15T10:49:14;94959.03;;;-0.37;100.00
64141;BME280;50436;50.618;7.932;2024-01-15T10:52:01;94962.53;;;-0.68;100.00
64141;BME280;50436;50.618;7.932;2024-01-15T10:54:48;94958.53;;;-1.02;100.00
64141;BME280;50436;50.618;7.932;2024-01-15T10:57:35;94964.34;;;-0.68;100.00
64141;BME280;50436;50.618;7.932;2024-01-15T11:00:22;94972.25;;;-0.68;100.00
64141;BME280;50436;50.618;7.932;2024-01-15T11:03:08;94957.69;;;-0.71;100.00
64141;BME280;50436;50.618;7.932;2024-01-15T11:05:54;94956.88;;;-0.71;100.00
64141;BME280;50436;50.618;7.932;2024-01-15T11:08:42;94964.22;;;-0.80;100.00
64141;BME280;50436;50.618;7.932;2024-01-15T11:11:28;94985.22;;;-1.05;100.00
64141;BME280;50436;50.618;7.932;2024-01-15T11:14:39;94968.78;;;-1.25;100.00
64141;BME280;50436;50.618;7.932;2024-01-15T11:17:25;94982.22;;;-1.08;100.00
64141;BME280;50436;50.618;7.932;2024-01-15T11:20:13;94976.41;;;-0.86;100.00
64141;BME280;50436;50.618;7.932;2024-01-15T11:22:58;94965.97;;;-0.67;100.00
64141;BME280;50436;50.618;7.932;2024-01-15T11:26:26;94965.97;;;-0.67;100.00
64141;BME280;50436;50.618;7.932;2024-01-15T11:29:39;94961.59;;;-0.55;100.00
64141;BME280;50436;50.618;7.932;2024-01-15T11:32:33;94972.56;;;-0.58;100.00
64141;BME280;50436;50.618;7.932;2024-01-15T11:35:45;94967.38;;;-0.21;100.00
64141;BME280;50436;50.618;7.932;2024-01-15T11:38:39;94965.84;;;-0.11;100.00
64141;BME280;50436;50.618;7.932;2024-01-15T11:41:25;94971.44;;;-0.25;100.00
64141;BME280;50436;50.618;7.932;2024-01-15T11:44:22;94970.69;;;-0.33;100.00
64141;BME280;50436;50.618;7.932;2024-01-15T11:47:40;94971.25;;;-0.74;100.00
64141;BME280;50436;50.618;7.932;2024-01-15T11:50:31;94968.47;;;-0.79;100.00
64141;BME280;50436;50.618;7.932;2024-01-15T11:56:15;94985.63;;;-0.76;100.00
64141;BME280;50436;50.618;7.932;2024-01-15T11:59:04;94969.44;;;-0.73;100.00
64141;BME280;50436;50.618;7.932;2024-01-15T12:01:49;94975.00;;;-0.63;100.00
64141;BME280;50436;50.618;7.932;2024-01-15T12:04:35;94978.38;;;-0.56;100.00
64141;BME280;50436;50.618;7.932;2024-01-15T12:07:22;94986.50;;;-0.58;100.00
64141;BME280;50436;50.618;7.932;2024-01-15T12:10:09;94977.84;;;-0.40;100.00
64141;BME280;50436;50.618;7.932;2024-01-15T12:15:45;94992.69;;;0.35;100.00
64141;BME280;50436;50.618;7.932;2024-01-15T12:18:32;95014.31;;;0.55;100.00
64141;BME280;50436;50.618;7.932;2024-01-15T12:21:17;95003.38;;;0.70;100.00
64141;BME280;50436;50.618;7.932;2024-01-15T12:24:06;94996.84;;;0.42;100.00
64141;BME280;50436;50.618;7.932;2024-01-15T12:27:20;95005.03;;;0.16;100.00
64141;BME280;50436;50.618;7.932;2024-01-15T12:30:11;94999.97;;;0.14;100.00
64141;BME280;50436;50.618;7.932;2024-01-15T12:32:57;95005.44;;;0.31;100.00
64141;BME280;50436;50.618;7.932;2024-01-15T12:35:43;95000.28;;;0.24;100.00
64141;BME280;50436;50.618;7.932;2024-01-15T12:38:30;94998.25;;;0.08;100.00
64141;BME280;50436;50.618;7.932;2024-01-15T12:41:15;94998.72;;;-0.20;100.00
64141;BME280;50436;50.618;7.932;2024-01-15T12:44:29;95005.53;;;-0.62;100.00
64141;BME280;50436;50.618;7.932;2024-01-15T12:47:15;95001.94;;;-0.68;100.00
64141;BME280;50436;50.618;7.932;2024-01-15T12:50:42;95016.09;;;-0.69;100.00
64141;BME280;50436;50.618;7.932;2024-01-15T12:54:09;95007.56;;;-0.96;100.00
64141;BME280;50436;50.618;7.932;2024-01-15T12:56:57;95018.44;;;-0.86;100.00
64141;BME280;50436;50.618;7.932;2024-01-15T12:59:44;95023.59;;;-1.04;100.00
64141;BME280;50436;50.618;7.932;2024-01-15T13:02:30;95028.06;;;-1.11;100.00
64141;BME280;50436;50.618;7.932;2024-01-15T13:05:16;95023.78;;;-0.99;100.00
64141;BME280;50436;50.618;7.932;2024-01-15T13:08:03;95015.63;;;-0.91;100.00
64141;BME280;50436;50.618;7.932;2024-01-15T13:10:49;95025.56;;;-0.93;100.00
64141;BME280;50436;50.618;7.932;2024-01-15T13:13:35;95023.19;;;-1.01;100.00
64141;BME280;50436;50.618;7.932;2024-01-15T13:16:20;95021.53;;;-1.02;100.00
64141;BME280;50436;50.618;7.932;2024-01-15T13:19:07;95017.81;;;-0.88;100.00
64141;BME280;50436;50.618;7.932;2024-01-15T13:21:54;95025.88;;;-0.82;100.00
64141;BME280;50436;50.618;7.932;2024-01-15T13:24:40;95038.69;;;-0.61;100.00
64141;BME280;50436;50.618;7.932;2024-01-15T13:27:26;95026.09;;;-0.52;100.00
64141;BME280;50436;50.618;7.932;2024-01-15T13:30:12;95018.59;;;-0.80;100.00
64141;BME280;50436;50.618;7.932;2024-01-15T13:32:58;95018.31;;;-0.97;100.00
64141;BME280;50436;50.618;7.932;2024-01-15T13:35:49;95047.16;;;-0.91;100.00
64141;BME280;50436;50.618;7.932;2024-01-15T13:38:38;95025.72;;;-0.88;100.00
64141;BME280;50436;50.618;7.932;2024-01-15T13:41:23;95041.75;;;-1.02;100.00
64141;BME280;50436;50.618;7.932;2024-01-15T13:44:12;95028.81;;;-0.97;100.00
64141;BME280;50436;50.618;7.932;2024-01-15T13:47:01;95039.53;;;-0.99;100.00
64141;BME280;50436;50.618;7.932;2024-01-15T13:49:46;95024.38;;;-1.03;100.00
64141;BME280;50436;50.618;7.932;2024-01-15T13:52:32;95032.13;;;-1.08;100.00
64141;BME280;50436;50.618;7.932;2024-01-15T13:55:18;95032.72;;;-1.13;100.00
64141;BME280;50436;50.618;7.932;2024-01-15T13:58:04;95020.19;;;-1.11;100.00
64141;BME280;50436;50.618;7.932;2024-01-15T14:00:51;95035.69;;;-1.03;100.00
64141;BME280;50436;50.618;7.932;2024-01-15T14:03:37;95033.28;;;-1.04;100.00
64141;BME280;50436;50.618;7.932;2024-01-15T14:06:23;95035.34;;;-1.13;100.00
64141;BME280;50436;50.618;7.932;2024-01-15T14:09:09;95043.03;;;-1.18;100.00
64141;BME280;50436;50.618;7.932;2024-01-15T14:11:55;95034.81;;;-1.28;100.00
64141;BME280;50436;50.618;7.932;2024-01-15T14:14:41;95043.72;;;-1.29;100.00
64141;BME280;50436;50.618;7.932;2024-01-15T14:17:28;95044.88;;;-1.19;100.00
64141;BME280;50436;50.618;7.932;2024-01-15T14:20:13;95045.13;;;-1.33;100.00
64141;BME280;50436;50.618;7.932;2024-01-15T14:22:59;95056.44;;;-1.33;100.00
64141;BME280;50436;50.618;7.932;2024-01-15T14:25:45;95051.84;;;-1.44;100.00
64141;BME280;50436;50.618;7.932;2024-01-15T14:28:31;95054.03;;;-1.41;100.00
64141;BME280;50436;50.618;7.932;2024-01-15T14:31:17;95058.91;;;-1.45;100.00
64141;BME280;50436;50.618;7.932;2024-01-15T14:34:02;95062.53;;;-1.39;100.00
64141;BME280;50436;50.618;7.932;2024-01-15T14:36:49;95055.69;;;-1.47;100.00
64141;BME280;50436;50.618;7.932;2024-01-15T14:39:35;95063.38;;;-1.52;100.00
64141;BME280;50436;50.618;7.932;2024-01-15T14:42:21;95058.16;;;-1.58;100.00
64141;BME280;50436;50.618;7.932;2024-01-15T14:45:08;95070.25;;;-1.51;100.00